Ft Sturla — IBXV — position and weather

sailwx.info

Track history (hours):
 
Tides and Currents Weather Stations Pressure Air Temp Water Temp Dewpoint Dewpoint Depression Visibility Wind Speed Wind Dir Waves Ship Positions

Ft Sturla

Last reported at 2014-Jul-17 14:33 UTC. Time now 2014-Sep-21 04:06 UTC.
Position N 38°56' E 014°42'.
Warning: this ship's position is months out of date.

Length 120 m; draft 5.4 m.

Type: Tanker. MMSI: 247282200.

Date/timePositionNaut miles runAvg speedWind from/ knotsBaromVisibWave heightAir tempDewpointWater temp
2014-Jul-17 14:33N 38°56' E 014°42'2511.9
2014-Jul-17 12:25N 39°09' E 014°14'2311.7
2014-Jul-17 10:30N 39°21' E 013°49'1111.8
2014-Jul-17 09:33N 39°26' E 013°37'1211.7
2014-Jul-17 08:33N 39°32' E 013°23'1211.9
2014-Jul-17 07:32N 39°38' E 013°10'1212.0
2014-Jul-17 06:33N 39°44' E 012°57'19711.6
2014-Jul-16 13:32N 41°17' E 009°09'1411.4
2014-Jul-16 12:20N 41°10' E 008°53'1511.5
2014-Jul-16 11:04N 41°01' E 008°38'  
2014-Jul-14 02:13N 38°35' E 009°07'811.5
2014-Jul-14 01:32N 38°32' E 009°17'  
2014-Jul-11 14:34N 36°40' E 014°30'1212.1
2014-Jul-11 13:33N 36°45' E 014°16'1212.1
2014-Jul-11 12:33N 36°51' E 014°03'1212.0
2014-Jul-11 11:33N 36°58' E 013°51'  
2014-Jul-07 23:13N 42°47' E 009°45'810.9
2014-Jul-07 22:29N 42°54' E 009°42'1110.0
2014-Jul-07 21:24N 43°05' E 009°41'8 9.4
2014-Jul-07 20:33N 43°13' E 009°42'10 9.7
2014-Jul-07 19:33N 43°23' E 009°43'1110.6
2014-Jul-07 18:33N 43°33' E 009°46'1111.0
2014-Jul-07 17:33N 43°44' E 009°49'1111.1
2014-Jul-07 16:33N 43°55' E 009°53'1110.8
2014-Jul-07 15:33N 44°05' E 009°51'  
Track history (hours):
 
Tides and Currents Weather Stations Pressure Air Temp Water Temp Dewpoint Dewpoint Depression Visibility Wind Speed Wind Dir Waves Ship Positions

Ft Sturla

Last reported at 2014-Jul-17 14:33 UTC. Time now 2014-Sep-21 04:06 UTC.
Position N 38°56' E 014°42'.
Warning: this ship's position is months out of date.

Length 120 m; draft 5.4 m.

Type: Tanker. MMSI: 247282200.

Date/timePositionNaut miles runAvg speedWind from/ knotsBaromVisibWave heightAir tempDewpointWater temp
2014-Jul-17 14:33N 38°56' E 014°42'2511.9
2014-Jul-17 12:25N 39°09' E 014°14'2311.7
2014-Jul-17 10:30N 39°21' E 013°49'1111.8
2014-Jul-17 09:33N 39°26' E 013°37'1211.7
2014-Jul-17 08:33N 39°32' E 013°23'1211.9
2014-Jul-17 07:32N 39°38' E 013°10'1212.0
2014-Jul-17 06:33N 39°44' E 012°57'19711.6
2014-Jul-16 13:32N 41°17' E 009°09'1411.4
2014-Jul-16 12:20N 41°10' E 008°53'1511.5
2014-Jul-16 11:04N 41°01' E 008°38'  
2014-Jul-14 02:13N 38°35' E 009°07'811.5
2014-Jul-14 01:32N 38°32' E 009°17'  
2014-Jul-11 14:34N 36°40' E 014°30'1212.1
2014-Jul-11 13:33N 36°45' E 014°16'1212.1
2014-Jul-11 12:33N 36°51' E 014°03'1212.0
2014-Jul-11 11:33N 36°58' E 013°51'  
2014-Jul-07 23:13N 42°47' E 009°45'810.9
2014-Jul-07 22:29N 42°54' E 009°42'1110.0
2014-Jul-07 21:24N 43°05' E 009°41'8 9.4
2014-Jul-07 20:33N 43°13' E 009°42'10 9.7
2014-Jul-07 19:33N 43°23' E 009°43'1110.6
2014-Jul-07 18:33N 43°33' E 009°46'1111.0
2014-Jul-07 17:33N 43°44' E 009°49'1111.1
2014-Jul-07 16:33N 43°55' E 009°53'1110.8
2014-Jul-07 15:33N 44°05' E 009°51'  

Dump ship's entire track history